Time;durP1;ratioP1;P1;durP2;ratioP2;P2;SDS_P1;SDS_P2;PMS_P1;PMS_P2;Temp;Humidity;BMP_temperature;BMP_pressure;BME280_temperature;BME280_humidity;BME280_pressure;Samples;Min_cycle;Max_cycle;Signal;HPM_P1;HPM_P2
2022/12/02 00:00:23;;;;;;;51.00;29.48;;;3.30;99.90;;;;;;4783755;29;20047;-84
2022/12/02 00:02:49;;;;;;;50.63;28.27;;;3.30;99.90;;;;;;4800006;29;20155;-85
2022/12/02 00:05:15;;;;;;;49.83;27.80;;;3.30;99.90;;;;;;4802294;29;20081;-85
2022/12/02 00:07:42;;;;;;;47.58;28.27;;;3.30;99.90;;;;;;4800910;29;20053;-85
2022/12/02 00:10:24;;;;;;;49.90;28.27;;;3.40;99.90;;;;;;4785167;29;20552;-84
2022/12/02 00:12:50;;;;;;;47.67;28.17;;;3.30;99.90;;;;;;4802202;29;20038;-83
2022/12/02 00:15:46;;;;;;;49.10;28.77;;;3.30;99.90;;;;;;4784248;29;20268;-83
2022/12/02 00:18:14;;;;;;;53.97;29.77;;;3.40;99.90;;;;;;4777465;29;20627;-84
2022/12/02 00:20:41;;;;;;;50.03;28.20;;;3.30;99.90;;;;;;4799682;29;20389;-83
2022/12/02 00:23:07;;;;;;;52.42;29.45;;;3.30;99.90;;;;;;4784295;29;20082;-83
2022/12/02 00:25:33;;;;;;;47.90;28.77;;;3.30;99.90;;;;;;4789746;29;20069;-85
2022/12/02 00:27:59;;;;;;;44.70;27.27;;;3.30;99.90;;;;;;4804760;29;20080;-84
2022/12/02 00:30:25;;;;;;;50.50;28.27;;;3.40;99.90;;;;;;4785996;29;20595;-85
2022/12/02 00:32:51;;;;;;;49.83;28.50;;;3.40;99.90;;;;;;4784247;29;20039;-85
2022/12/02 00:35:17;;;;;;;49.50;28.75;;;3.40;99.90;;;;;;4787040;29;20047;-84
2022/12/02 00:37:42;;;;;;;49.80;27.85;;;3.30;99.90;;;;;;4804139;29;20051;-84
2022/12/02 00:40:08;;;;;;;49.70;27.25;;;3.40;99.90;;;;;;4771072;29;20046;-83
2022/12/02 00:42:35;;;;;;;51.53;27.80;;;3.40;99.90;;;;;;4786194;29;20062;-85
2022/12/02 00:47:45;;;;;;;51.38;29.10;;;3.40;99.90;;;;;;4799857;29;20051;-85
2022/12/02 00:50:11;;;;;;;49.97;28.95;;;3.30;99.90;;;;;;4769275;29;20487;-84
2022/12/02 00:52:37;;;;;;;53.90;29.30;;;3.30;99.90;;;;;;4800254;29;20418;-84
2022/12/02 00:55:03;;;;;;;51.38;29.00;;;3.40;99.90;;;;;;4800605;29;20066;-84
2022/12/02 00:57:29;;;;;;;51.45;30.75;;;3.30;99.90;;;;;;4789213;29;20443;-85
2022/12/02 00:59:54;;;;;;;49.53;29.98;;;3.40;99.90;;;;;;4786269;29;20138;-83
2022/12/02 01:02:20;;;;;;;51.65;29.77;;;3.30;99.90;;;;;;4786861;29;20045;-85
2022/12/02 01:04:45;;;;;;;51.70;30.30;;;3.40;99.90;;;;;;4783723;29;20120;-83
2022/12/02 01:07:11;;;;;;;45.97;28.35;;;3.40;99.90;;;;;;4787656;29;20043;-84
2022/12/02 01:09:37;;;;;;;51.45;30.15;;;3.30;99.90;;;;;;4785798;29;20031;-84
2022/12/02 01:12:02;;;;;;;49.30;28.23;;;3.30;99.90;;;;;;4784726;29;20080;-84
2022/12/02 01:14:28;;;;;;;47.33;27.20;;;3.30;99.90;;;;;;4784055;29;20043;-84
2022/12/02 01:16:53;;;;;;;50.45;29.48;;;3.30;99.90;;;;;;4785513;29;20043;-82
2022/12/02 01:19:19;;;;;;;47.15;28.75;;;3.40;99.90;;;;;;4802105;29;20078;-85
2022/12/02 01:21:45;;;;;;;46.35;29.33;;;3.40;99.90;;;;;;4785703;29;20113;-84
2022/12/02 01:24:10;;;;;;;50.45;28.40;;;3.30;99.90;;;;;;4786354;29;20184;-84
2022/12/02 01:26:36;;;;;;;42.88;26.15;;;3.30;99.90;;;;;;4785286;29;20090;-82
2022/12/02 01:29:01;;;;;;;47.28;27.50;;;3.20;99.90;;;;;;4785601;29;20047;-85
2022/12/02 01:31:27;;;;;;;43.85;26.80;;;3.30;99.90;;;;;;4784690;29;20039;-85
2022/12/02 01:33:56;;;;;;;44.25;26.52;;;3.30;99.90;;;;;;4786692;29;20054;-84
2022/12/02 01:36:21;;;;;;;41.53;26.00;;;3.30;99.90;;;;;;4799081;29;20061;-84
2022/12/02 01:38:47;;;;;;;41.78;25.98;;;3.20;99.90;;;;;;4784473;29;20054;-84
2022/12/02 01:41:12;;;;;;;43.25;26.15;;;3.30;99.90;;;;;;4790196;29;20047;-83
2022/12/02 01:43:38;;;;;;;45.72;27.63;;;3.30;99.90;;;;;;4770896;29;20046;-84
2022/12/02 01:46:04;;;;;;;46.63;27.60;;;3.20;99.90;;;;;;4786004;29;20145;-84
2022/12/02 01:48:30;;;;;;;45.45;25.63;;;3.30;99.90;;;;;;4784822;29;20126;-85
2022/12/02 01:50:56;;;;;;;42.38;25.45;;;3.40;99.90;;;;;;4784413;29;20043;-85
2022/12/02 01:53:23;;;;;;;45.72;27.00;;;3.30;99.90;;;;;;4773134;29;20039;-85
2022/12/02 01:55:49;;;;;;;40.25;24.05;;;3.90;99.90;;;;;;4773635;29;20039;-83
2022/12/02 01:58:17;;;;;;;38.65;22.98;;;3.20;99.90;;;;;;4789109;29;20050;-83
2022/12/02 02:00:42;;;;;;;34.97;19.92;;;3.20;99.90;;;;;;4791284;29;20499;-84
2022/12/02 02:03:08;;;;;;;36.22;19.30;;;3.20;99.90;;;;;;4788708;29;20051;-85
2022/12/02 02:05:34;;;;;;;32.42;19.10;;;3.20;99.90;;;;;;4789073;29;20038;-84
2022/12/02 02:08:09;;;;;;;33.63;18.95;;;3.10;99.90;;;;;;4789542;29;20042;-85
2022/12/02 02:10:37;;;;;;;31.77;17.45;;;3.10;99.90;;;;;;4803539;29;20506;-85
2022/12/02 02:13:03;;;;;;;31.58;17.10;;;3.10;99.90;;;;;;4800717;29;20518;-84
2022/12/02 02:15:29;;;;;;;28.98;16.92;;;3.10;99.90;;;;;;4791326;29;20454;-84
2022/12/02 02:17:56;;;;;;;27.38;16.02;;;3.10;99.90;;;;;;4788000;29;20039;-85
2022/12/02 02:20:23;;;;;;;22.45;14.55;;;3.40;99.90;;;;;;4788869;29;20046;-84
2022/12/02 02:23:04;;;;;;;22.70;14.00;;;3.00;99.90;;;;;;4787147;29;20043;-84
2022/12/02 02:25:37;;;;;;;24.42;14.65;;;3.00;99.90;;;;;;4787214;29;20043;-85
2022/12/02 02:28:03;;;;;;;20.02;11.57;;;3.10;99.90;;;;;;4788623;29;20058;-85
2022/12/02 02:30:32;;;;;;;20.92;12.48;;;3.00;99.90;;;;;;4787795;29;20752;-84
2022/12/02 02:33:01;;;;;;;17.65;11.90;;;3.00;99.90;;;;;;4790472;29;20042;-85
2022/12/02 02:35:27;;;;;;;24.02;13.25;;;3.10;99.90;;;;;;4801521;29;20131;-84
2022/12/02 02:37:53;;;;;;;21.42;13.05;;;3.00;99.90;;;;;;4787467;29;20116;-83
2022/12/02 02:40:21;;;;;;;18.95;11.68;;;3.00;99.90;;;;;;4786882;29;20043;-84
2022/12/02 02:42:51;;;;;;;21.02;12.45;;;3.00;99.90;;;;;;4789038;29;20180;-84
2022/12/02 02:45:18;;;;;;;19.27;12.98;;;3.00;99.90;;;;;;4803095;29;20039;-85
2022/12/02 02:47:45;;;;;;;21.83;14.13;;;2.90;99.90;;;;;;4788328;29;20503;-84
2022/12/02 02:50:10;;;;;;;21.70;14.05;;;3.00;99.90;;;;;;4786865;29;20368;-85
2022/12/02 02:52:36;;;;;;;19.13;13.35;;;3.00;99.90;;;;;;4787973;29;20057;-85
2022/12/02 02:55:02;;;;;;;23.52;14.68;;;2.90;99.90;;;;;;4786997;29;20050;-85
2022/12/02 02:57:28;;;;;;;20.77;14.35;;;2.90;99.90;;;;;;4803477;29;20039;-85
2022/12/02 02:59:55;;;;;;;25.17;15.23;;;2.90;99.90;;;;;;4791236;29;20053;-84
2022/12/02 03:02:22;;;;;;;21.75;14.52;;;2.90;99.90;;;;;;4789246;29;20051;-84
2022/12/02 03:04:48;;;;;;;26.55;16.25;;;2.80;99.90;;;;;;4788498;29;20155;-84
2022/12/02 03:07:14;;;;;;;24.35;16.40;;;2.80;99.90;;;;;;4790066;29;20080;-84
2022/12/02 03:09:40;;;;;;;26.00;16.17;;;2.80;99.90;;;;;;4787897;29;20031;-84
2022/12/02 03:12:06;;;;;;;26.73;16.23;;;2.80;99.90;;;;;;4785634;29;20066;-85
2022/12/02 03:14:32;;;;;;;26.38;15.15;;;2.80;99.90;;;;;;4803024;29;20042;-84
2022/12/02 03:17:00;;;;;;;29.63;17.00;;;2.80;99.90;;;;;;4787048;29;20054;-84
2022/12/02 03:19:28;;;;;;;26.17;15.23;;;2.80;99.90;;;;;;4802950;29;20744;-83
2022/12/02 03:21:53;;;;;;;24.40;15.80;;;2.80;99.90;;;;;;4774076;29;20076;-85
2022/12/02 03:24:19;;;;;;;26.08;16.92;;;2.70;99.90;;;;;;4787221;29;20046;-85
2022/12/02 03:26:45;;;;;;;23.52;14.63;;;2.70;99.90;;;;;;4789570;29;20541;-83
2022/12/02 03:29:12;;;;;;;28.20;16.63;;;2.70;99.90;;;;;;4787513;29;20082;-84
2022/12/02 03:31:38;;;;;;;28.25;16.35;;;2.70;99.90;;;;;;4772529;29;20047;-84
2022/12/02 03:34:04;;;;;;;28.17;16.98;;;2.70;99.90;;;;;;4772335;29;20406;-84
2022/12/02 03:36:30;;;;;;;30.13;17.42;;;2.70;99.90;;;;;;4787070;29;20072;-85
2022/12/02 03:38:56;;;;;;;28.90;17.63;;;2.70;99.90;;;;;;4787918;29;20489;-84
2022/12/02 03:41:24;;;;;;;31.08;16.83;;;2.70;99.90;;;;;;4773654;29;20047;-84
2022/12/02 03:43:49;;;;;;;31.98;16.70;;;3.00;99.90;;;;;;4788226;29;20039;-84
2022/12/02 03:46:15;;;;;;;27.35;16.30;;;2.70;99.90;;;;;;4770259;29;20627;-82
2022/12/02 03:48:42;;;;;;;30.02;16.52;;;2.70;99.90;;;;;;4786410;29;20064;-85
2022/12/02 03:51:09;;;;;;;26.83;15.13;;;2.60;99.90;;;;;;4801230;29;20045;-84
2022/12/02 03:53:39;;;;;;;31.55;16.38;;;3.50;99.90;;;;;;4789098;29;20491;-85
2022/12/02 03:56:06;;;;;;;30.58;16.80;;;2.60;99.90;;;;;;4787875;29;20078;-85
2022/12/02 03:58:38;;;;;;;26.90;15.65;;;2.60;99.90;;;;;;4802823;29;20081;-84
2022/12/02 04:01:04;;;;;;;29.55;16.20;;;2.60;99.90;;;;;;4789303;29;20042;-85
2022/12/02 04:03:31;;;;;;;29.10;17.25;;;2.60;99.90;;;;;;4786802;29;20130;-83
2022/12/02 04:05:56;;;;;;;32.03;18.67;;;3.20;99.90;;;;;;4784132;29;20035;-84
2022/12/02 04:08:22;;;;;;;34.65;19.13;;;2.60;99.90;;;;;;4788004;29;20405;-84
2022/12/02 04:10:48;;;;;;;35.72;19.45;;;2.60;99.90;;;;;;4789206;29;20076;-83
2022/12/02 04:13:13;;;;;;;35.95;20.63;;;2.60;99.90;;;;;;4787909;29;20054;-85
2022/12/02 04:15:39;;;;;;;37.05;21.13;;;2.60;99.90;;;;;;4789365;29;20042;-84
2022/12/02 04:18:05;;;;;;;36.05;19.75;;;2.60;99.90;;;;;;4784934;29;20189;-84
2022/12/02 04:20:31;;;;;;;41.65;20.95;;;2.80;99.90;;;;;;4784302;29;20081;-84
2022/12/02 04:22:56;;;;;;;40.47;22.77;;;2.80;99.90;;;;;;4787642;29;20486;-84
2022/12/02 04:25:22;;;;;;;38.83;22.27;;;2.50;99.90;;;;;;4786422;29;20100;-83
2022/12/02 04:27:47;;;;;;;41.70;23.05;;;2.50;99.90;;;;;;4787600;29;20054;-84
2022/12/02 04:30:13;;;;;;;38.35;23.10;;;2.50;99.90;;;;;;4773783;29;20045;-83
2022/12/02 04:32:38;;;;;;;38.35;21.38;;;2.50;99.90;;;;;;4802458;29;20103;-83
2022/12/02 04:35:04;;;;;;;39.35;23.05;;;2.60;99.90;;;;;;4787676;29;20050;-84
2022/12/02 04:37:30;;;;;;;40.58;23.20;;;2.60;99.90;;;;;;4784172;29;20047;-84
2022/12/02 04:39:55;;;;;;;40.67;23.15;;;2.50;99.90;;;;;;4787959;29;20046;-85
2022/12/02 04:42:21;;;;;;;42.03;23.90;;;2.50;99.90;;;;;;4790578;29;20050;-84
2022/12/02 04:44:46;;;;;;;43.28;23.65;;;2.50;99.90;;;;;;4789990;29;20049;-85
2022/12/02 04:47:12;;;;;;;42.95;23.52;;;2.50;99.90;;;;;;4773571;29;20042;-85
2022/12/02 04:49:38;;;;;;;43.45;23.77;;;2.60;99.90;;;;;;4785885;29;20093;-84
2022/12/02 04:52:03;;;;;;;39.30;23.65;;;2.50;99.90;;;;;;4785691;29;20046;-84
2022/12/02 04:54:29;;;;;;;43.38;22.15;;;2.50;99.90;;;;;;4786116;29;20038;-85
2022/12/02 04:56:54;;;;;;;40.03;21.92;;;2.60;99.90;;;;;;4787606;29;20069;-84
2022/12/02 04:59:20;;;;;;;42.00;22.50;;;2.50;99.90;;;;;;4787677;29;20111;-86
2022/12/02 05:01:46;;;;;;;42.40;22.80;;;2.50;99.90;;;;;;4785647;29;20076;-85
2022/12/02 05:04:12;;;;;;;41.20;22.25;;;2.50;99.90;;;;;;4785154;29;20049;-86
2022/12/02 05:06:37;;;;;;;41.80;22.73;;;3.30;99.90;;;;;;4784313;29;20046;-84
2022/12/02 05:09:03;;;;;;;47.03;24.50;;;2.80;99.90;;;;;;4789192;29;20283;-85
2022/12/02 05:11:29;;;;;;;41.55;22.25;;;2.60;99.90;;;;;;4799366;29;20150;-86
2022/12/02 05:13:54;;;;;;;42.25;22.90;;;2.50;99.90;;;;;;4801373;29;20418;-86
2022/12/02 05:16:20;;;;;;;41.70;24.05;;;2.50;99.90;;;;;;4798683;29;20043;-86
2022/12/02 05:18:46;;;;;;;42.13;25.95;;;2.40;99.90;;;;;;4785598;29;21034;-85
2022/12/02 05:21:11;;;;;;;45.20;25.48;;;2.50;99.90;;;;;;4785792;29;20055;-86
2022/12/02 05:23:37;;;;;;;42.72;24.65;;;2.40;99.90;;;;;;4784190;29;20047;-87
2022/12/02 05:26:02;;;;;;;45.63;24.88;;;2.40;99.90;;;;;;4770101;29;20137;-84
2022/12/02 05:28:28;;;;;;;47.20;25.80;;;2.40;99.90;;;;;;4796696;29;20112;-86
2022/12/02 05:30:53;;;;;;;46.88;24.58;;;2.40;99.90;;;;;;4785716;29;20112;-85
2022/12/02 05:33:24;;;;;;;49.67;27.05;;;2.30;99.90;;;;;;4787224;29;20035;-84
2022/12/02 05:36:11;;;;;;;48.35;26.17;;;2.30;99.90;;;;;;4799390;29;20055;-85
2022/12/02 05:38:40;;;;;;;42.03;23.88;;;2.30;99.90;;;;;;4784588;29;20453;-83
2022/12/02 05:41:06;;;;;;;48.60;25.58;;;2.30;99.90;;;;;;4767470;29;20054;-82
2022/12/02 05:43:40;;;;;;;48.40;26.90;;;2.30;99.90;;;;;;4784579;29;20096;-86
2022/12/02 05:46:15;;;;;;;49.35;27.02;;;2.30;99.90;;;;;;4783065;29;20053;-85
2022/12/02 05:48:41;;;;;;;47.30;25.95;;;2.40;99.90;;;;;;4793123;29;20070;-86
2022/12/02 05:51:12;;;;;;;52.22;28.42;;;2.60;99.90;;;;;;4793643;29;20078;-86
2022/12/02 05:53:55;;;;;;;47.72;25.90;;;2.20;99.90;;;;;;4806499;29;20153;-86
2022/12/02 05:56:26;;;;;;;49.80;26.83;;;2.30;99.90;;;;;;4804268;29;20137;-86
2022/12/02 05:59:16;;;;;;;49.67;25.88;;;2.10;99.90;;;;;;4788261;29;20712;-84
2022/12/02 06:01:45;;;;;;;50.78;26.13;;;2.40;99.90;;;;;;4783637;29;20142;-82
2022/12/02 06:11:37;;;;;;;53.40;27.83;;;2.20;99.90;;;;;;4767538;29;20064;-84
2022/12/02 06:14:18;;;;;;;54.40;27.60;;;2.10;99.90;;;;;;4774173;29;20054;-86
2022/12/02 06:17:11;;;;;;;48.67;26.98;;;2.10;99.90;;;;;;4794023;29;20038;-87
2022/12/02 06:19:56;;;;;;;56.15;27.27;;;2.10;99.90;;;;;;4793028;29;20050;-85
2022/12/02 06:22:38;;;;;;;55.28;28.83;;;2.10;99.90;;;;;;4786603;29;20577;-86
2022/12/02 06:25:23;;;;;;;57.22;27.73;;;2.10;99.90;;;;;;4790520;29;20131;-85
2022/12/02 06:27:51;;;;;;;57.50;28.63;;;2.20;99.90;;;;;;4796651;29;20536;-86
2022/12/02 06:30:21;;;;;;;53.78;27.92;;;2.20;99.90;;;;;;4792856;29;20039;-87
2022/12/02 06:32:57;;;;;;;55.08;29.67;;;2.20;99.90;;;;;;4792880;29;20047;-85
2022/12/02 06:35:28;;;;;;;;;;;2.50;99.90;;;;;;4807511;29;20049;-84
2022/12/02 06:37:59;;;;;;;60.50;29.35;;;2.20;99.90;;;;;;4791633;29;19964;-85
2022/12/02 06:40:35;;;;;;;62.40;29.67;;;2.20;99.90;;;;;;4794701;29;20074;-84
2022/12/02 06:43:11;;;;;;;59.40;28.42;;;2.30;99.90;;;;;;4790981;29;20073;-85
2022/12/02 06:45:36;;;;;;;59.10;29.17;;;2.20;99.90;;;;;;4789707;29;20046;-84
2022/12/02 06:48:23;;;;;;;54.50;28.80;;;2.30;99.90;;;;;;4790708;29;20096;-84
2022/12/02 06:50:49;;;;;;;56.97;27.77;;;2.30;99.90;;;;;;4791038;29;20039;-84
2022/12/02 06:53:35;;;;;;;54.92;27.92;;;2.20;99.90;;;;;;4772758;29;20050;-86
2022/12/02 06:56:05;;;;;;;56.22;30.42;;;3.40;99.90;;;;;;4787038;29;20043;-85
2022/12/02 06:58:35;;;;;;;58.42;29.90;;;2.20;99.90;;;;;;4787696;29;20051;-84
2022/12/02 07:01:06;;;;;;;56.25;29.10;;;2.30;99.90;;;;;;4790773;29;20096;-86
2022/12/02 07:03:47;;;;;;;55.80;29.02;;;2.20;99.90;;;;;;4787961;29;20054;-86
2022/12/02 07:06:14;;;;;;;59.50;29.15;;;2.20;99.90;;;;;;4777041;29;20061;-86
2022/12/02 07:08:40;;;;;;;62.03;30.20;;;2.20;99.90;;;;;;4796960;29;20045;-84
2022/12/02 07:11:18;;;;;;;61.75;30.95;;;2.20;99.90;;;;;;4805683;29;20047;-83
2022/12/02 07:13:43;;;;;;;60.30;30.40;;;2.20;99.90;;;;;;4787430;29;20042;-85
2022/12/02 07:16:33;;;;;;;56.92;28.52;;;2.20;99.90;;;;;;4790546;29;20138;-84
2022/12/02 07:18:59;;;;;;;58.15;30.33;;;2.30;99.90;;;;;;4795427;29;20165;-84
2022/12/02 07:21:25;;;;;;;57.40;30.15;;;2.30;99.90;;;;;;4791052;29;20093;-85
2022/12/02 07:23:50;;;;;;;61.90;29.88;;;2.30;99.90;;;;;;4789739;29;20139;-84
2022/12/02 07:26:21;;;;;;;62.60;31.25;;;2.30;99.90;;;;;;4787776;29;20051;-83
2022/12/02 07:28:46;;;;;;;60.08;29.83;;;2.30;99.90;;;;;;4795355;29;20051;-84
2022/12/02 07:31:20;;;;;;;63.45;29.52;;;2.30;99.90;;;;;;4791312;29;20039;-83
2022/12/02 07:33:46;;;;;;;57.95;30.13;;;2.30;99.90;;;;;;4802570;29;20051;-85
2022/12/02 07:36:12;;;;;;;59.17;29.48;;;2.30;99.90;;;;;;4779977;29;20054;-85
2022/12/02 07:38:38;;;;;;;59.78;29.17;;;2.40;99.90;;;;;;4791315;29;20042;-84
2022/12/02 07:41:04;;;;;;;62.65;30.60;;;2.40;99.90;;;;;;4790438;29;20066;-86
2022/12/02 07:43:30;;;;;;;63.15;30.85;;;2.40;99.90;;;;;;4786924;29;20122;-84
2022/12/02 07:45:56;;;;;;;59.45;29.13;;;2.40;99.90;;;;;;4790267;29;20096;-84
2022/12/02 07:48:21;;;;;;;59.50;29.90;;;2.40;99.90;;;;;;4801624;29;20046;-84
2022/12/02 07:50:47;;;;;;;55.50;29.23;;;2.50;99.90;;;;;;4790865;29;20043;-84
2022/12/02 07:53:12;;;;;;;59.17;28.23;;;2.50;99.90;;;;;;4780490;29;20457;-84
2022/12/02 07:55:38;;;;;;;59.15;27.70;;;2.40;99.90;;;;;;4774719;29;20058;-84
2022/12/02 07:58:04;;;;;;;58.72;28.67;;;2.50;99.90;;;;;;4797831;29;20407;-84
2022/12/02 08:00:29;;;;;;;55.47;26.80;;;2.50;99.90;;;;;;4791787;29;20047;-84
2022/12/02 08:03:02;;;;;;;54.75;26.85;;;2.80;99.90;;;;;;4789120;29;20043;-88
2022/12/02 08:05:28;;;;;;;58.55;26.40;;;2.50;99.90;;;;;;4802257;29;20046;-84
2022/12/02 08:08:21;;;;;;;53.40;26.00;;;2.00;99.90;;;;;;4804076;29;20046;-86
2022/12/02 08:11:01;;;;;;;58.28;28.35;;;2.60;99.90;;;;;;4792363;29;20409;-86
2022/12/02 08:13:27;;;;;;;58.65;27.83;;;2.60;99.90;;;;;;4790788;29;20050;-86
2022/12/02 08:15:56;;;;;;;66.28;28.30;;;2.70;99.90;;;;;;4788595;29;20057;-86
2022/12/02 08:18:22;;;;;;;63.05;30.02;;;2.50;99.90;;;;;;4793483;29;20035;-83
2022/12/02 08:20:47;;;;;;;70.50;31.88;;;2.60;99.90;;;;;;4776802;29;20134;-83
2022/12/02 08:23:13;;;;;;;63.97;30.45;;;2.50;99.90;;;;;;4752994;29;20143;-86
2022/12/02 08:26:13;;;;;;;73.32;34.10;;;2.60;99.90;;;;;;4766985;29;20066;-82
2022/12/02 08:37:01;;;;;;;71.85;33.13;;;2.60;99.90;;;;;;4748726;30;20050;-83
2022/12/02 08:44:29;;;;;;;74.97;32.90;;;2.50;99.90;;;;;;4675503;30;20077;-83
2022/12/02 08:48:41;;;;;;;66.20;30.80;;;2.20;99.90;;;;;;4709481;30;20048;-83
2022/12/02 08:52:00;;;;;;;62.08;29.05;;;2.50;99.90;;;;;;4727000;30;20059;-84
2022/12/02 08:55:26;;;;;;;58.67;26.15;;;2.60;99.90;;;;;;4761534;30;20056;-84
2022/12/02 08:58:20;;;;;;;57.78;26.77;;;2.50;99.90;;;;;;4756239;30;20059;-83
2022/12/02 09:05:17;;;;;;;59.90;26.65;;;2.50;99.90;;;;;;4680400;30;20069;-83
2022/12/02 09:08:14;;;;;;;55.42;25.05;;;2.40;99.90;;;;;;4729689;30;20063;-83
2022/12/02 09:15:14;;;;;;;55.35;27.42;;;2.50;99.90;;;;;;4672086;30;20076;-83
2022/12/02 09:18:03;;;;;;;58.92;26.30;;;2.30;99.90;;;;;;4688271;30;20147;-85
2022/12/02 09:39:23;;;;;;;56.25;27.02;;;2.70;99.90;;;;;;4629976;30;20139;-86
2022/12/02 09:41:48;;;;;;;58.60;26.77;;;2.60;99.90;;;;;;4722880;29;20792;-85
2022/12/02 09:44:14;;;;;;;54.17;26.65;;;2.60;99.90;;;;;;4781941;29;20066;-85
2022/12/02 09:46:40;;;;;;;58.63;27.50;;;2.80;99.90;;;;;;4782786;29;20054;-85
2022/12/02 10:00:59;;;;;;;54.72;24.48;;;3.10;99.90;;;;;;4799276;29;20153;-83
2022/12/02 10:04:25;;;;;;;56.95;26.10;;;2.80;99.90;;;;;;4784297;29;20046;-86
2022/12/02 10:07:30;;;;;;;56.08;26.40;;;2.70;99.90;;;;;;4781733;29;20055;-83
2022/12/02 10:09:59;;;;;;;58.78;26.70;;;2.90;99.90;;;;;;4771513;29;20059;-82
2022/12/02 10:12:24;;;;;;;57.70;25.55;;;2.80;99.90;;;;;;4795561;29;20054;-83
2022/12/02 10:14:50;;;;;;;61.85;27.27;;;2.80;99.90;;;;;;4783234;29;20035;-88
2022/12/02 10:17:19;;;;;;;74.63;29.70;;;2.80;99.90;;;;;;4782275;29;20392;-83
2022/12/02 10:19:48;;;;;;;67.22;27.55;;;2.80;99.90;;;;;;4792447;29;20403;-85
2022/12/02 10:22:15;;;;;;;77.78;32.92;;;2.70;99.90;;;;;;4785413;29;20047;-83
2022/12/02 10:24:41;;;;;;;65.60;29.35;;;2.70;99.90;;;;;;4787613;29;20704;-83
2022/12/02 10:27:07;;;;;;;68.70;29.42;;;2.60;99.90;;;;;;4772307;29;20039;-83
2022/12/02 10:29:33;;;;;;;63.85;28.88;;;2.60;99.90;;;;;;4785687;29;20070;-83
2022/12/02 10:32:19;;;;;;;67.88;29.05;;;2.70;99.90;;;;;;4787346;29;20058;-83
2022/12/02 10:35:05;;;;;;;58.75;27.38;;;2.70;99.90;;;;;;4793521;29;20078;-85
2022/12/02 10:37:33;;;;;;;59.60;25.90;;;2.80;99.90;;;;;;4785445;29;20090;-85
2022/12/02 10:40:24;;;;;;;63.22;27.00;;;2.70;99.90;;;;;;4793736;29;20039;-85
2022/12/02 10:43:10;;;;;;;54.30;26.50;;;2.70;99.90;;;;;;4807526;29;20053;-85
2022/12/02 10:45:36;;;;;;;53.53;26.10;;;2.70;99.90;;;;;;4789690;29;20043;-85
2022/12/02 10:48:17;;;;;;;61.10;25.95;;;2.70;99.90;;;;;;4793819;29;20046;-85
2022/12/02 10:50:43;;;;;;;54.00;25.50;;;3.30;99.90;;;;;;4793377;29;20436;-86
2022/12/02 10:53:19;;;;;;;51.70;24.73;;;3.20;99.90;;;;;;4791328;29;20066;-87
2022/12/02 10:55:48;;;;;;;47.42;26.02;;;2.80;99.90;;;;;;4793339;29;20046;-85
2022/12/02 10:58:21;;;;;;;52.00;25.80;;;2.80;99.90;;;;;;4804055;29;20054;-85
2022/12/02 11:00:47;;;;;;;47.35;23.15;;;2.80;99.90;;;;;;4779421;29;20054;-83
2022/12/02 11:03:13;;;;;;;43.83;23.13;;;3.10;99.90;;;;;;4773473;29;20057;-82
2022/12/02 11:05:39;;;;;;;40.97;23.52;;;2.80;99.90;;;;;;4773564;29;20051;-82
2022/12/02 11:08:17;;;;;;;51.85;26.00;;;2.80;99.90;;;;;;4787692;29;20143;-84
2022/12/02 11:10:48;;;;;;;48.10;26.50;;;2.80;99.90;;;;;;4773098;29;20155;-84
2022/12/02 11:13:17;;;;;;;51.78;27.92;;;2.80;99.90;;;;;;4787240;29;20070;-85
2022/12/02 11:15:48;;;;;;;45.75;25.90;;;2.80;99.90;;;;;;4784921;29;20194;-85
2022/12/02 11:18:28;;;;;;;49.20;26.35;;;2.80;99.90;;;;;;4791911;29;20072;-86
2022/12/02 11:21:20;;;;;;;49.38;26.73;;;2.70;99.90;;;;;;4803461;29;20528;-86
2022/12/02 11:24:05;;;;;;;50.80;26.85;;;2.70;99.90;;;;;;4778549;29;20047;-88
2022/12/02 11:27:02;;;;;;;51.80;27.35;;;2.70;99.90;;;;;;4805166;29;20464;-85
2022/12/02 11:29:36;;;;;;;53.70;28.30;;;2.80;99.90;;;;;;4801405;29;20070;-88
2022/12/02 11:32:15;;;;;;;54.70;28.23;;;2.70;99.90;;;;;;4797389;29;20045;-88
2022/12/02 11:34:43;;;;;;;58.15;29.23;;;2.70;99.90;;;;;;4812472;29;20078;-86
2022/12/02 11:37:32;;;;;;;56.08;30.17;;;2.70;99.90;;;;;;4795095;29;20046;-86
2022/12/02 11:40:26;;;;;;;56.20;30.15;;;2.80;99.90;;;;;;4800058;29;20080;-83
2022/12/02 11:43:31;;;;;;;69.85;33.90;;;2.80;99.90;;;;;;4785245;29;20050;-85
2022/12/02 11:45:58;;;;;;;67.95;33.65;;;2.70;99.90;;;;;;4785738;29;20057;-85
2022/12/02 11:48:23;;;;;;;66.13;33.30;;;2.90;99.90;;;;;;4770519;29;20122;-89
2022/12/02 11:50:49;;;;;;;77.35;36.45;;;2.60;99.90;;;;;;4785768;29;20117;-86
2022/12/02 11:53:21;;;;;;;69.75;35.20;;;2.60;99.90;;;;;;4771277;29;20050;-84
2022/12/02 11:55:49;;;;;;;68.35;34.92;;;2.60;99.90;;;;;;4786709;29;20046;-86
2022/12/02 11:58:27;;;;;;;69.00;34.85;;;2.50;99.90;;;;;;4786368;29;20043;-86
2022/12/02 12:01:03;;;;;;;67.53;34.42;;;2.60;99.90;;;;;;4785026;29;20050;-84
2022/12/02 12:03:29;;;;;;;70.30;36.30;;;2.60;99.90;;;;;;4785890;29;20126;-84
2022/12/02 12:06:11;;;;;;;65.60;36.13;;;2.60;99.90;;;;;;4782796;29;20143;-83
2022/12/02 12:08:43;;;;;;;72.28;34.92;;;2.60;99.90;;;;;;4786246;29;20090;-84
2022/12/02 12:11:21;;;;;;;68.43;35.90;;;2.50;99.90;;;;;;4786013;29;20141;-84
2022/12/02 12:14:11;;;;;;;71.40;37.53;;;2.50;99.90;;;;;;4787973;29;20046;-87
2022/12/02 12:16:42;;;;;;;74.40;36.90;;;2.60;99.90;;;;;;4785425;29;20042;-84
2022/12/02 12:19:11;;;;;;;73.97;37.50;;;2.50;99.90;;;;;;4798561;29;20419;-81
2022/12/02 12:21:44;;;;;;;69.50;36.25;;;2.60;99.90;;;;;;4782005;29;20502;-81
2022/12/02 12:24:16;;;;;;;69.00;37.67;;;2.60;99.90;;;;;;4783087;29;20050;-81
2022/12/02 12:26:44;;;;;;;68.20;36.80;;;2.60;99.90;;;;;;4796922;29;20051;-82
2022/12/02 12:29:10;;;;;;;66.75;33.95;;;2.60;99.90;;;;;;4782342;29;20039;-81
2022/12/02 12:31:36;;;;;;;66.45;35.08;;;2.70;99.90;;;;;;4780424;29;20146;-81
2022/12/02 12:34:02;;;;;;;66.38;35.55;;;2.70;99.90;;;;;;4781667;29;20049;-86
2022/12/02 12:36:28;;;;;;;65.88;37.20;;;2.60;99.90;;;;;;4782277;29;20418;-85
2022/12/02 12:38:54;;;;;;;65.50;37.58;;;2.60;99.90;;;;;;4783294;29;20051;-81
2022/12/02 12:41:19;;;;;;;60.60;33.95;;;2.60;99.90;;;;;;4782780;29;20064;-88
2022/12/02 12:43:45;;;;;;;65.30;36.28;;;2.70;99.90;;;;;;4769335;29;20426;-83
2022/12/02 12:46:11;;;;;;;65.90;35.67;;;2.60;99.90;;;;;;4785861;29;20054;-82
2022/12/02 12:48:36;;;;;;;65.13;34.38;;;2.60;99.90;;;;;;4785241;29;20055;-83
2022/12/02 12:51:02;;;;;;;63.38;35.78;;;2.60;99.90;;;;;;4781247;29;20145;-81
2022/12/02 12:53:28;;;;;;;60.65;34.53;;;2.60;99.90;;;;;;4782831;29;20053;-81
2022/12/02 12:55:53;;;;;;;59.83;35.25;;;2.90;99.90;;;;;;4784250;29;20046;-81
2022/12/02 12:58:19;;;;;;;59.80;35.08;;;2.60;99.90;;;;;;4772979;29;20059;-81
2022/12/02 13:00:44;;;;;;;55.67;33.28;;;2.80;99.90;;;;;;4771200;29;20055;-81
2022/12/02 13:03:10;;;;;;;59.05;35.55;;;2.50;99.90;;;;;;4788104;29;20047;-81
2022/12/02 13:05:35;;;;;;;61.72;36.45;;;2.70;99.90;;;;;;4787958;29;20114;-81
2022/12/02 13:08:01;;;;;;;57.97;34.55;;;2.60;99.90;;;;;;4787909;29;20050;-81
2022/12/02 13:10:27;;;;;;;58.47;35.65;;;2.60;99.90;;;;;;4784666;29;20520;-82
2022/12/02 13:12:52;;;;;;;62.33;33.90;;;2.50;99.90;;;;;;4788469;29;20096;-82
2022/12/02 13:15:18;;;;;;;62.47;35.65;;;2.50;99.90;;;;;;4790202;29;20046;-81
2022/12/02 13:17:44;;;;;;;60.25;36.30;;;2.60;99.90;;;;;;4803877;29;20137;-81
2022/12/02 13:20:10;;;;;;;68.00;38.13;;;2.50;99.90;;;;;;4786146;29;20183;-82
2022/12/02 13:22:36;;;;;;;63.95;35.00;;;2.50;99.90;;;;;;4787795;29;20081;-81
2022/12/02 13:25:02;;;;;;;58.85;36.15;;;2.50;99.90;;;;;;4786042;29;20504;-81
2022/12/02 13:27:28;;;;;;;61.47;35.72;;;2.50;99.90;;;;;;4804083;29;20050;-81
2022/12/02 13:29:53;;;;;;;64.90;36.30;;;2.50;99.90;;;;;;4789599;29;20038;-81
2022/12/02 13:32:19;;;;;;;63.58;36.30;;;2.50;99.90;;;;;;4787623;29;20384;-80
2022/12/02 13:34:44;;;;;;;59.40;35.80;;;2.50;99.90;;;;;;4771628;29;20100;-81
2022/12/02 13:37:10;;;;;;;59.65;34.58;;;2.60;99.90;;;;;;4767413;29;20422;-83
2022/12/02 13:39:36;;;;;;;54.85;33.22;;;2.60;99.90;;;;;;4781159;29;20047;-83
2022/12/02 13:42:01;;;;;;;53.35;33.22;;;2.60;99.90;;;;;;4783274;29;20043;-83
2022/12/02 13:44:27;;;;;;;56.95;32.10;;;2.60;99.90;;;;;;4780840;29;20072;-82
2022/12/02 13:46:52;;;;;;;57.72;35.08;;;2.60;99.90;;;;;;4783061;29;20129;-82
2022/12/02 13:49:18;;;;;;;58.53;36.13;;;2.60;99.90;;;;;;4783559;29;20104;-82
2022/12/02 13:51:44;;;;;;;52.88;33.42;;;2.60;99.90;;;;;;4770834;29;20042;-81
2022/12/02 13:54:09;;;;;;;55.22;33.55;;;2.60;99.90;;;;;;4789525;29;20138;-81
2022/12/02 13:56:35;;;;;;;57.25;34.33;;;2.60;99.90;;;;;;4789286;29;20067;-80